Time;durP1;ratioP1;P1;durP2;ratioP2;P2;SDS_P1;SDS_P2;PMS_P1;PMS_P2;Temp;Humidity;BMP_temperature;BMP_pressure;BME280_temperature;BME280_humidity;BME280_pressure;Samples;Min_cycle;Max_cycle;Signal;HPM_P1;HPM_P2
2021/12/19 00:02:43;;;;;;;;;;;;;;;6.00;100.00;102864.66;5064041;28;19983;-78
2021/12/19 00:10:37;;;;;;;;;;;;;;;6.04;100.00;102834.94;5062815;28;20469;-78
2021/12/19 00:13:02;;;;;;;;;;;;;;;6.06;100.00;102837.50;5061808;28;19915;-79
2021/12/19 00:15:28;;;;;;;;;;;;;;;6.03;100.00;102828.06;5046941;28;19922;-77
2021/12/19 00:17:54;;;;;;;;;;;;;;;5.98;100.00;102830.00;5080176;28;19912;-78
2021/12/19 00:20:19;;;;;;;;;;;;;;;6.02;100.00;102833.34;5050037;28;19927;-79
2021/12/19 00:22:45;;;;;;;;;;;;;;;6.06;100.00;102841.88;5068960;28;19916;-78
2021/12/19 00:25:10;;;;;;;;;;;;;;;6.00;100.00;102835.16;5078233;28;19916;-75
2021/12/19 00:27:36;;;;;;;;;;;;;;;6.07;100.00;102823.56;5070978;28;19934;-77
2021/12/19 00:30:02;;;;;;;;;;;;;;;6.00;100.00;102824.75;5048986;28;19916;-78
2021/12/19 00:32:28;;;;;;;;;;;;;;;5.99;100.00;102826.50;5063074;28;19956;-77
2021/12/19 00:34:53;;;;;;;;;;;;;;;6.02;100.00;102822.91;5063876;28;20508;-76
2021/12/19 00:37:20;;;;;;;;;;;;;;;5.93;100.00;102813.69;5060436;28;19912;-75
2021/12/19 00:39:46;;;;;;;;;;;;;;;6.02;100.00;102822.91;5062781;28;19987;-76
2021/12/19 00:42:14;;;;;;;;;;;;;;;6.02;100.00;102821.16;5061147;28;20345;-74
2021/12/19 00:44:42;;;;;;;;;;;;;;;6.04;100.00;102815.88;5060592;28;20314;-76
2021/12/19 00:47:07;;;;;;;;;;;;;;;6.09;100.00;102818.28;5038167;28;19916;-76
2021/12/19 00:49:33;;;;;;;;;;;;;;;6.12;100.00;102810.31;5074306;28;19920;-78
2021/12/19 00:51:59;;;;;;;;;;;;;;;6.07;100.00;102807.09;5058976;28;19923;-77
2021/12/19 00:54:25;;;;;;;;;;;;;;;6.11;100.00;102800.84;5069070;28;19912;-76
2021/12/19 00:56:50;;;;;;;;;;;;;;;6.10;100.00;102820.81;5073683;28;19947;-76
2021/12/19 00:59:16;;;;;;;;;;;;;;;6.17;100.00;102804.00;5074114;28;19912;-76
2021/12/19 01:01:42;;;;;;;;;;;;;;;6.15;100.00;102794.56;5061300;28;19973;-77
2021/12/19 01:04:10;;;;;;;;;;;;;;;6.11;100.00;102799.06;5059688;28;19920;-76
2021/12/19 01:06:37;;;;;;;;;;;;;;;6.12;100.00;102790.34;5043892;28;19938;-75
2021/12/19 01:09:03;;;;;;;;;;;;;;;6.14;100.00;102790.25;5044877;28;19961;-77
2021/12/19 01:11:29;;;;;;;;;;;;;;;6.09;100.00;102784.44;5073363;28;19916;-76
2021/12/19 01:13:56;;;;;;;;;;;;;;;6.08;100.00;102770.53;5076582;28;19912;-75
2021/12/19 01:16:21;;;;;;;;;;;;;;;6.13;100.00;102768.56;5033436;28;19916;-76
2021/12/19 01:18:48;;;;;;;;;;;;;;;6.07;100.00;102783.66;5043542;28;20459;-76
2021/12/19 01:21:14;;;;;;;;;;;;;;;5.98;100.00;102744.03;5072825;28;19916;-77
2021/12/19 01:23:40;;;;;;;;;;;;;;;6.12;100.00;102753.00;5052500;28;19912;-75
2021/12/19 01:26:06;;;;;;;;;;;;;;;6.09;100.00;102759.22;5057749;28;20283;-76
2021/12/19 01:28:32;;;;;;;;;;;;;;;6.10;100.00;102760.03;5060114;28;20503;-75
2021/12/19 01:30:59;;;;;;;;;;;;;;;6.02;100.00;102771.66;5061038;28;20298;-76
2021/12/19 01:33:24;;;;;;;;;;;;;;;6.09;100.00;102761.81;5040852;28;19916;-76
2021/12/19 01:35:50;;;;;;;;;;;;;;;6.13;100.00;102747.72;5036470;28;19921;-76
2021/12/19 01:38:16;;;;;;;;;;;;;;;6.16;100.00;102755.41;5073848;28;19941;-76
2021/12/19 01:40:42;;;;;;;;;;;;;;;6.16;100.00;102745.00;5055745;28;19922;-76
2021/12/19 01:43:07;;;;;;;;;;;;;;;6.12;100.00;102759.09;5056633;28;19995;-77
2021/12/19 01:45:35;;;;;;;;;;;;;;;6.19;100.00;102755.25;5059822;28;19920;-76
2021/12/19 01:48:01;;;;;;;;;;;;;;;6.18;100.00;102758.81;5058080;28;19931;-76
2021/12/19 01:50:27;;;;;;;;;;;;;;;6.21;100.00;102757.81;5043013;28;19958;-76
2021/12/19 01:52:53;;;;;;;;;;;;;;;6.13;100.00;102760.75;5042535;28;19967;-75
2021/12/19 01:55:19;;;;;;;;;;;;;;;6.16;100.00;102751.94;5040682;28;19920;-76
2021/12/19 01:57:45;;;;;;;;;;;;;;;6.12;100.00;102751.28;5060261;28;19922;-76
2021/12/19 02:00:17;;;;;;;;;;;;;;;6.10;100.00;102745.25;5058988;28;19923;-76
2021/12/19 02:02:43;;;;;;;;;;;;;;;6.15;100.00;102732.88;5047687;28;19937;-75
2021/12/19 02:05:09;;;;;;;;;;;;;;;6.11;100.00;102728.72;5037273;28;19916;-77
2021/12/19 02:07:35;;;;;;;;;;;;;;;6.18;100.00;102724.94;5054132;28;20087;-78
2021/12/19 02:10:00;;;;;;;;;;;;;;;6.15;100.00;102714.63;5055856;28;19924;-77
2021/12/19 02:12:25;;;;;;;;;;;;;;;6.21;100.00;102690.88;5039399;28;19916;-75
2021/12/19 02:14:51;;;;;;;;;;;;;;;6.15;100.00;102717.25;5052073;28;19920;-77
2021/12/19 02:17:17;;;;;;;;;;;;;;;6.22;100.00;102696.97;5038687;28;19916;-76
2021/12/19 02:19:43;;;;;;;;;;;;;;;6.15;100.00;102701.59;5057724;28;19915;-78
2021/12/19 02:22:08;;;;;;;;;;;;;;;6.20;100.00;102715.28;5056693;28;19962;-77
2021/12/19 02:24:34;;;;;;;;;;;;;;;6.20;100.00;102699.66;5062511;28;19942;-78
2021/12/19 02:27:00;;;;;;;;;;;;;;;6.20;100.00;102699.66;5039960;28;19979;-76
2021/12/19 02:29:25;;;;;;;;;;;;;;;6.20;100.00;102698.81;5074384;28;20015;-79
2021/12/19 02:31:51;;;;;;;;;;;;;;;6.22;100.00;102703.03;5073229;28;19974;-78
2021/12/19 02:34:21;;;;;;;;;;;;;;;6.16;100.00;102698.09;5043480;28;19973;-78
2021/12/19 02:37:00;;;;;;;;;;;;;;;6.19;100.00;102704.91;5073392;28;19920;-77
2021/12/19 02:48:11;;;;;;;;;;;;;;;6.14;100.00;102707.75;5097051;28;19920;-78
2021/12/19 02:50:37;;;;;;;;;;;;;;;6.10;100.00;102690.53;5041960;28;19916;-78
2021/12/19 02:53:03;;;;;;;;;;;;;;;6.17;100.00;102691.13;5058938;28;19916;-78
2021/12/19 02:55:28;;;;;;;;;;;;;;;6.15;100.00;102699.00;5055033;28;19942;-77
2021/12/19 02:57:54;;;;;;;;;;;;;;;6.10;100.00;102689.69;5034811;28;19951;-77
2021/12/19 03:00:25;;;;;;;;;;;;;;;6.12;100.00;102693.94;5035733;28;19919;-77
2021/12/19 03:02:50;;;;;;;;;;;;;;;6.09;100.00;102680.22;5055347;28;20002;-77
2021/12/19 03:05:16;;;;;;;;;;;;;;;6.16;100.00;102679.00;5053692;28;20011;-76
2021/12/19 03:07:42;;;;;;;;;;;;;;;6.15;100.00;102679.91;5048912;28;19912;-78
2021/12/19 03:13:15;;;;;;;;;;;;;;;6.11;100.00;102662.75;5054071;28;19951;-77
2021/12/19 03:18:26;;;;;;;;;;;;;;;6.02;100.00;102671.81;5068036;28;20405;-77
2021/12/19 03:20:51;;;;;;;;;;;;;;;6.01;100.00;102678.78;5076212;28;19916;-78
2021/12/19 03:23:17;;;;;;;;;;;;;;;6.01;100.00;102680.56;5059089;28;19916;-77
2021/12/19 03:25:42;;;;;;;;;;;;;;;6.01;100.00;102680.56;5059687;28;19997;-78
2021/12/19 03:28:09;;;;;;;;;;;;;;;6.03;100.00;102676.13;5030609;28;19920;-76
2021/12/19 03:30:35;;;;;;;;;;;;;;;6.10;100.00;102668.84;5060653;28;19916;-79
2021/12/19 03:33:01;;;;;;;;;;;;;;;6.10;100.00;102661.88;5059666;28;19951;-78
2021/12/19 03:35:29;;;;;;;;;;;;;;;6.00;100.00;102671.88;5038616;28;19969;-77
2021/12/19 03:37:55;;;;;;;;;;;;;;;6.06;100.00;102646.47;5061096;28;19916;-76
2021/12/19 03:40:34;;;;;;;;;;;;;;;6.03;100.00;102657.88;5042980;28;19916;-78
2021/12/19 03:43:01;;;;;;;;;;;;;;;6.08;100.00;102655.06;5077488;28;19920;-78
2021/12/19 03:45:26;;;;;;;;;;;;;;;6.07;100.00;102649.00;5044568;28;19912;-77
2021/12/19 03:47:52;;;;;;;;;;;;;;;6.03;100.00;102639.66;5079022;28;20284;-79
2021/12/19 03:50:21;;;;;;;;;;;;;;;6.16;100.00;102653.81;5061472;28;19927;-78
2021/12/19 03:52:47;;;;;;;;;;;;;;;5.99;100.00;102656.31;5061004;28;19923;-78
2021/12/19 03:55:12;;;;;;;;;;;;;;;5.97;100.00;102640.78;5075729;28;19931;-79
2021/12/19 03:57:38;;;;;;;;;;;;;;;5.93;100.00;102651.34;5056603;28;19908;-79
2021/12/19 04:00:05;;;;;;;;;;;;;;;6.04;100.00;102646.53;5077579;28;19907;-78
2021/12/19 04:02:32;;;;;;;;;;;;;;;6.00;100.00;102651.03;5075939;28;20053;-79
2021/12/19 04:04:58;;;;;;;;;;;;;;;5.96;100.00;102641.69;5061762;28;20023;-78
2021/12/19 04:07:25;;;;;;;;;;;;;;;5.94;100.00;102637.44;5057436;28;19923;-78
2021/12/19 04:09:51;;;;;;;;;;;;;;;5.96;100.00;102640.84;5061541;28;19916;-77
2021/12/19 04:12:16;;;;;;;;;;;;;;;5.89;100.00;102642.00;5059796;28;20043;-78
2021/12/19 04:14:42;;;;;;;;;;;;;;;5.96;100.00;102631.25;5061977;28;19916;-79
2021/12/19 04:17:08;;;;;;;;;;;;;;;5.89;100.00;102636.78;5056612;28;20043;-78
2021/12/19 04:19:33;;;;;;;;;;;;;;;5.91;100.00;102633.19;5072729;28;20337;-78
2021/12/19 04:22:02;;;;;;;;;;;;;;;5.81;100.00;102622.34;5059444;28;19915;-78
2021/12/19 04:24:28;;;;;;;;;;;;;;;5.82;100.00;102623.19;5043670;28;20402;-78
2021/12/19 04:26:54;;;;;;;;;;;;;;;5.78;100.00;102613.81;5061567;28;19916;-77
2021/12/19 04:29:19;;;;;;;;;;;;;;;5.80;100.00;102612.00;5076262;28;19912;-77
2021/12/19 04:31:45;;;;;;;;;;;;;;;5.76;100.00;102608.69;5059768;28;19969;-79
2021/12/19 04:34:13;;;;;;;;;;;;;;;5.70;100.00;102606.38;5058916;28;19915;-77
2021/12/19 04:36:41;;;;;;;;;;;;;;;5.66;100.00;102597.00;5059185;28;19924;-79
2021/12/19 04:50:57;;;;;;;;;;;;;;;5.65;100.00;102606.59;5056045;28;20011;-76
2021/12/19 04:53:12;;;;;;;;;;;;;;;5.53;100.00;102594.09;5053061;28;20090;-77
2021/12/19 05:01:09;;;;;;;;;;;;;;;5.52;100.00;102588.97;5075092;28;19919;-77
2021/12/19 05:03:50;;;;;;;;;;;;;;;5.56;100.00;102587.94;5053854;28;20010;-77
2021/12/19 05:06:35;;;;;;;;;;;;;;;5.57;100.00;102579.19;5072916;28;19939;-77
2021/12/19 05:14:34;;;;;;;;;;;;;;;5.60;100.00;102579.06;5072466;28;19911;-78
2021/12/19 05:17:10;;;;;;;;;;;;;;;5.59;100.00;102570.38;5058180;28;20324;-77
2021/12/19 05:22:47;;;;;;;;;;;;;;;5.64;100.00;102568.44;4990115;28;19917;-77
2021/12/19 05:25:14;;;;;;;;;;;;;;;5.62;100.00;102569.44;4973853;28;19913;-78
2021/12/19 05:27:41;;;;;;;;;;;;;;;5.61;100.00;102549.50;5015954;28;19922;-77
2021/12/19 05:30:07;;;;;;;;;;;;;;;5.63;100.00;102547.66;5057111;28;19915;-78
2021/12/19 05:32:32;;;;;;;;;;;;;;;5.69;100.00;102543.94;5058426;28;19916;-77
2021/12/19 05:34:58;;;;;;;;;;;;;;;5.65;100.00;102533.69;5058664;28;20449;-78
2021/12/19 05:45:35;;;;;;;;;;;;;;;5.68;100.00;102537.91;5074061;28;20475;-77
2021/12/19 05:48:01;;;;;;;;;;;;;;;5.66;100.00;102524.09;5074783;28;19911;-78
2021/12/19 05:50:27;;;;;;;;;;;;;;;5.58;100.00;102534.03;5071828;28;20735;-77
2021/12/19 05:52:52;;;;;;;;;;;;;;;5.63;100.00;102522.50;5073955;28;19916;-77
2021/12/19 05:55:18;;;;;;;;;;;;;;;5.74;100.00;102527.19;5053585;28;19974;-78
2021/12/19 05:57:44;;;;;;;;;;;;;;;5.69;100.00;102530.91;5057716;28;20032;-78
2021/12/19 06:00:12;;;;;;;;;;;;;;;5.69;100.00;102523.97;5059133;28;19935;-75
2021/12/19 06:02:39;;;;;;;;;;;;;;;5.66;100.00;102522.34;5060159;28;20018;-76
2021/12/19 06:05:05;;;;;;;;;;;;;;;5.71;100.00;102518.66;5092011;28;19911;-76
2021/12/19 06:07:31;;;;;;;;;;;;;;;5.77;100.00;102513.19;5041737;28;20004;-76
2021/12/19 06:09:57;;;;;;;;;;;;;;;5.77;100.00;102524.44;5057775;28;19916;-78
2021/12/19 06:12:22;;;;;;;;;;;;;;;5.73;100.00;102517.72;5057965;28;19912;-78
2021/12/19 06:14:48;;;;;;;;;;;;;;;5.89;100.00;102507.41;5075198;28;19946;-77
2021/12/19 06:17:14;;;;;;;;;;;;;;;5.89;100.00;102519.59;5071260;28;19930;-77
2021/12/19 06:19:39;;;;;;;;;;;;;;;5.91;100.00;102520.34;5056715;28;20281;-79
2021/12/19 06:22:05;;;;;;;;;;;;;;;5.86;100.00;102520.59;5075117;28;20390;-78
2021/12/19 06:24:32;;;;;;;;;;;;;;;5.87;100.00;102504.03;5076945;28;19912;-78
2021/12/19 06:26:58;;;;;;;;;;;;;;;5.91;100.00;102509.94;5077218;28;19916;-76
2021/12/19 06:29:24;;;;;;;;;;;;;;;5.97;100.00;102501.84;5076580;28;20338;-76
2021/12/19 06:31:50;;;;;;;;;;;;;;;5.93;100.00;102508.94;5060773;28;19916;-76
2021/12/19 06:34:15;;;;;;;;;;;;;;;5.81;100.00;102504.31;5057088;28;19918;-76
2021/12/19 06:36:41;;;;;;;;;;;;;;;5.82;100.00;102506.88;5058352;28;19927;-77
2021/12/19 06:39:06;;;;;;;;;;;;;;;5.92;100.00;102502.06;5058637;28;19927;-79
2021/12/19 06:41:33;;;;;;;;;;;;;;;5.91;100.00;102505.56;5057389;28;19916;-78
2021/12/19 06:43:59;;;;;;;;;;;;;;;5.94;100.00;102497.63;5072321;28;20433;-78
2021/12/19 06:46:25;;;;;;;;;;;;;;;5.95;100.00;102488.03;5072841;28;19951;-78
2021/12/19 06:48:50;;;;;;;;;;;;;;;6.00;100.00;102481.72;5057412;28;19920;-76
2021/12/19 06:51:16;;;;;;;;;;;;;;;5.93;100.00;102482.88;5056003;28;19913;-77
2021/12/19 06:53:42;;;;;;;;;;;;;;;5.91;100.00;102483.88;5057982;28;20429;-77
2021/12/19 06:56:08;;;;;;;;;;;;;;;5.91;100.00;102489.09;5076410;28;20033;-76
2021/12/19 06:58:33;;;;;;;;;;;;;;;5.90;100.00;102495.25;5057933;28;19972;-77
2021/12/19 07:00:59;;;;;;;;;;;;;;;5.92;100.00;102491.63;5040996;28;19959;-77
2021/12/19 07:03:24;;;;;;;;;;;;;;;5.96;100.00;102474.13;5075929;28;19915;-77
2021/12/19 07:05:50;;;;;;;;;;;;;;;5.90;100.00;102490.88;5060506;28;19922;-77
2021/12/19 07:08:16;;;;;;;;;;;;;;;5.99;100.00;102492.19;5075894;28;19912;-79
2021/12/19 07:10:41;;;;;;;;;;;;;;;5.89;100.00;102478.75;5061425;28;19923;-80
2021/12/19 07:13:07;;;;;;;;;;;;;;;5.90;100.00;102506.50;5055304;28;19916;-78
2021/12/19 07:15:32;;;;;;;;;;;;;;;5.92;100.00;102493.41;5092863;28;20207;-77
2021/12/19 07:18:02;;;;;;;;;;;;;;;5.99;100.00;102476.56;5060731;28;19916;-77
2021/12/19 07:20:30;;;;;;;;;;;;;;;6.02;100.00;102479.88;5060295;28;20012;-77
2021/12/19 07:22:56;;;;;;;;;;;;;;;6.08;100.00;102472.69;5076714;28;19912;-77
2021/12/19 07:25:22;;;;;;;;;;;;;;;6.02;100.00;102481.66;5075905;28;19923;-77
2021/12/19 07:27:47;;;;;;;;;;;;;;;6.06;100.00;102472.75;5038870;28;20050;-77
2021/12/19 07:30:13;;;;;;;;;;;;;;;6.03;100.00;102465.13;5073152;28;19916;-78
2021/12/19 07:32:39;;;;;;;;;;;;;;;5.96;100.00;102468.94;5041639;28;19920;-77
2021/12/19 07:35:07;;;;;;;;;;;;;;;6.04;100.00;102474.59;5038323;28;19938;-77
2021/12/19 07:37:33;;;;;;;;;;;;;;;5.95;100.00;102472.41;5075468;28;20181;-77
2021/12/19 07:40:10;;;;;;;;;;;;;;;5.97;100.00;102475.81;5075393;28;20322;-77
2021/12/19 07:42:36;;;;;;;;;;;;;;;6.00;100.00;102465.25;5042988;28;20011;-78
2021/12/19 07:45:02;;;;;;;;;;;;;;;6.00;100.00;102473.06;5075946;28;19992;-78
2021/12/19 07:47:27;;;;;;;;;;;;;;;6.04;100.00;102472.00;5058954;28;20003;-78
2021/12/19 07:49:53;;;;;;;;;;;;;;;6.10;100.00;102470.84;5076210;28;19923;-78
2021/12/19 07:52:18;;;;;;;;;;;;;;;6.16;100.00;102460.13;5045220;28;19942;-79
2021/12/19 07:54:45;;;;;;;;;;;;;;;6.07;100.00;102468.41;5060163;28;19927;-76
2021/12/19 07:57:10;;;;;;;;;;;;;;;6.13;100.00;102460.28;5089000;28;19964;-77
2021/12/19 07:59:36;;;;;;;;;;;;;;;6.10;100.00;102460.44;5075560;28;19916;-76
2021/12/19 08:02:02;;;;;;;;;;;;;;;6.16;100.00;102460.97;5075414;28;20274;-78
2021/12/19 08:04:28;;;;;;;;;;;;;;;6.21;100.00;102460.75;5073574;28;20565;-77
2021/12/19 08:06:53;;;;;;;;;;;;;;;6.17;100.00;102467.88;5056985;28;19987;-78
2021/12/19 08:09:35;;;;;;;;;;;;;;;6.17;100.00;102454.00;5075687;28;19923;-78
2021/12/19 08:12:02;;;;;;;;;;;;;;;6.16;100.00;102440.13;5056894;28;19919;-78
2021/12/19 08:14:27;;;;;;;;;;;;;;;6.16;100.00;102445.34;5058958;28;20370;-77
2021/12/19 08:16:53;;;;;;;;;;;;;;;6.19;100.00;102446.94;5074467;28;19931;-78
2021/12/19 08:19:18;;;;;;;;;;;;;;;6.20;100.00;102444.28;5052003;28;20652;-77
2021/12/19 08:21:44;;;;;;;;;;;;;;;6.21;100.00;102443.34;5090348;28;19981;-78
2021/12/19 08:24:11;;;;;;;;;;;;;;;6.16;100.00;102440.13;5040081;28;19916;-78
2021/12/19 08:26:38;;;;;;;;;;;;;;;6.26;100.00;102430.09;5057552;28;19935;-77
2021/12/19 08:29:03;;;;;;;;;;;;;;;6.30;100.00;102422.97;5074325;28;19963;-77
2021/12/19 08:31:29;;;;;;;;;;;;;;;6.28;100.00;102441.28;5073826;28;20827;-76
2021/12/19 08:33:54;;;;;;;;;;;;;;;6.31;100.00;102435.06;5057179;28;19915;-76
2021/12/19 08:36:20;;;;;;;;;;;;;;;6.30;100.00;102436.00;5060744;28;20377;-78
2021/12/19 08:38:47;;;;;;;;;;;;;;;6.26;100.00;102431.88;5059390;28;19916;-77
2021/12/19 08:41:12;;;;;;;;;;;;;;;6.30;100.00;102425.56;5055159;28;19923;-77
2021/12/19 08:43:38;;;;;;;;;;;;;;;6.36;100.00;102427.88;5074934;28;19915;-76
2021/12/19 08:46:03;;;;;;;;;;;;;;;6.43;100.00;102424.88;5057139;28;19911;-77
2021/12/19 08:48:29;;;;;;;;;;;;;;;6.34;100.00;102429.72;5056776;28;19920;-77
2021/12/19 08:50:54;;;;;;;;;;;;;;;6.33;100.00;102431.47;5058419;28;19994;-77
2021/12/19 08:53:20;;;;;;;;;;;;;;;6.39;100.00;102432.94;5058462;28;20327;-77
2021/12/19 08:55:46;;;;;;;;;;;;;;;6.37;100.00;102427.78;5051840;28;19959;-76
2021/12/19 08:58:11;;;;;;;;;;;;;;;6.42;100.00;102423.19;5073629;28;19995;-78
2021/12/19 09:00:37;;;;;;;;;;;;;;;6.52;100.00;102425.34;5073642;28;19926;-77
2021/12/19 09:03:05;;;;;;;;;;;;;;;6.48;100.00;102429.88;5069561;28;19924;-77
2021/12/19 09:05:31;;;;;;;;;;;;;;;6.44;100.00;102430.91;5088273;28;20411;-77
2021/12/19 09:07:56;;;;;;;;;;;;;;;6.41;100.00;102429.31;5073581;28;19960;-76
2021/12/19 09:10:22;;;;;;;;;;;;;;;6.43;100.00;102435.28;5054366;28;19915;-77
2021/12/19 09:12:49;;;;;;;;;;;;;;;6.46;100.00;102421.28;5055242;28;19916;-77
2021/12/19 09:15:15;;;;;;;;;;;;;;;6.46;100.00;102423.03;5056421;28;19926;-77
2021/12/19 09:17:40;;;;;;;;;;;;;;;6.49;100.00;102418.50;5072784;28;19916;-76
2021/12/19 09:20:07;;;;;;;;;;;;;;;6.47;100.00;102409.91;5055782;28;19934;-76
2021/12/19 09:22:33;;;;;;;;;;;;;;;6.49;100.00;102415.88;5056159;28;19968;-77
2021/12/19 09:24:59;;;;;;;;;;;;;;;6.51;100.00;102403.63;5071442;28;20489;-76
2021/12/19 09:27:25;;;;;;;;;;;;;;;6.59;100.00;102401.47;5051946;28;20009;-76
2021/12/19 09:29:51;;;;;;;;;;;;;;;6.61;100.00;102412.66;5053316;28;19941;-76
2021/12/19 09:32:16;;;;;;;;;;;;;;;6.59;100.00;102409.28;5054467;28;20371;-76
2021/12/19 09:34:42;;;;;;;;;;;;;;;6.62;100.00;102403.91;5053848;28;20370;-78
2021/12/19 09:37:07;;;;;;;;;;;;;;;6.63;100.00;102394.34;5054792;28;19919;-77
2021/12/19 09:39:33;;;;;;;;;;;;;;;6.70;100.00;102390.44;5070537;28;20438;-77
2021/12/19 09:42:01;;;;;;;;;;;;;;;6.77;100.00;102385.78;5054375;28;19963;-76
2021/12/19 09:44:27;;;;;;;;;;;;;;;6.76;100.00;102382.34;5054862;28;19916;-76
2021/12/19 09:46:53;;;;;;;;;;;;;;;6.77;100.00;102383.16;5072731;28;19911;-77
2021/12/19 09:49:20;;;;;;;;;;;;;;;6.82;100.00;102391.59;5055134;28;19972;-76
2021/12/19 09:51:46;;;;;;;;;;;;;;;6.87;100.00;102388.72;5073156;28;19916;-77
2021/12/19 09:54:12;;;;;;;;;;;;;;;6.84;100.00;102394.97;5049745;28;19920;-77
2021/12/19 09:56:38;;;;;;;;;;;;;;;6.85;100.00;102383.59;5068569;28;19923;-77
2021/12/19 09:59:08;;;;;;;;;;;;;;;6.96;100.00;102383.03;5071246;28;20480;-78
2021/12/19 10:01:34;;;;;;;;;;;;;;;6.88;100.00;102359.97;5054836;28;19988;-77
2021/12/19 10:03:59;;;;;;;;;;;;;;;6.90;100.00;102376.38;5071152;28;20636;-77
2021/12/19 10:06:26;;;;;;;;;;;;;;;6.84;100.00;102353.22;5069139;28;19939;-77
2021/12/19 10:09:10;;;;;;;;;;;;;;;6.91;100.00;102364.16;5071369;28;20049;-76
2021/12/19 10:14:36;;;;;;;;;;;;;;;6.97;100.00;102379.50;5055132;28;20297;-76
2021/12/19 10:17:17;;;;;;;;;;;;;;;6.99;100.00;102378.47;5068082;28;20328;-77
2021/12/19 10:19:51;;;;;;;;;;;;;;;6.96;100.00;102373.41;5062437;28;20608;-76
2021/12/19 10:22:27;;;;;;;;;;;;;;;6.98;100.00;102368.94;5071029;28;19912;-75
2021/12/19 10:24:53;;;;;;;;;;;;;;;6.99;100.00;102357.59;5054456;28;20026;-76
2021/12/19 10:27:30;;;;;;;;;;;;;;;7.01;100.00;102349.69;5053159;28;19922;-76
2021/12/19 10:29:55;;;;;;;;;;;;;;;7.05;100.00;102334.72;5052814;28;19916;-77
2021/12/19 10:32:21;;;;;;;;;;;;;;;7.10;100.00;102337.91;5052312;28;19923;-77
2021/12/19 10:34:46;;;;;;;;;;;;;;;7.08;100.00;102345.81;5079776;28;19916;-78
2021/12/19 10:37:12;;;;;;;;;;;;;;;7.10;100.00;102319.63;5069265;28;19923;-76
2021/12/19 10:39:39;;;;;;;;;;;;;;;7.09;100.00;102331.84;5068350;28;19915;-77
2021/12/19 10:42:05;;;;;;;;;;;;;;;7.10;100.00;102327.47;5083311;28;20073;-76
2021/12/19 10:47:20;;;;;;;;;;;;;;;7.07;100.00;102323.25;5050928;28;19923;-78
2021/12/19 10:49:46;;;;;;;;;;;;;;;7.14;100.00;102327.22;5036909;28;20375;-77
2021/12/19 10:52:11;;;;;;;;;;;;;;;7.08;100.00;102327.53;5050983;28;20019;-77
2021/12/19 10:54:54;;;;;;;;;;;;;;;7.16;100.00;102317.53;5041797;28;19985;-77
2021/12/19 10:57:29;;;;;;;;;;;;;;;7.19;100.00;102316.50;5071833;28;19916;-77
2021/12/19 10:59:55;;;;;;;;;;;;;;;7.14;100.00;102305.47;5066560;28;19943;-78
2021/12/19 11:02:33;;;;;;;;;;;;;;;7.17;100.00;102311.38;5070255;28;20362;-78
2021/12/19 11:04:59;;;;;;;;;;;;;;;7.06;100.00;102297.25;5054828;28;19920;-77
2021/12/19 11:07:24;;;;;;;;;;;;;;;7.04;100.00;102286.91;5070186;28;20401;-77
2021/12/19 11:09:50;;;;;;;;;;;;;;;7.09;100.00;102295.31;5074340;28;19965;-78
2021/12/19 11:12:15;;;;;;;;;;;;;;;7.10;100.00;102293.53;5089754;28;19923;-78
2021/12/19 11:14:45;;;;;;;;;;;;;;;7.08;100.00;102292.78;5056820;28;19935;-78
2021/12/19 11:17:15;;;;;;;;;;;;;;;7.10;100.00;102283.09;5055462;28;19916;-78
2021/12/19 11:19:41;;;;;;;;;;;;;;;7.06;100.00;102287.66;5072701;28;19919;-76
2021/12/19 11:22:08;;;;;;;;;;;;;;;7.09;100.00;102286.66;5074036;28;19998;-76
2021/12/19 11:24:33;;;;;;;;;;;;;;;7.14;100.00;102266.34;5072906;28;20046;-78
2021/12/19 11:27:01;;;;;;;;;;;;;;;7.11;100.00;102284.81;5054585;28;20405;-77
2021/12/19 11:29:26;;;;;;;;;;;;;;;7.14;100.00;102268.94;5071063;28;19986;-77
2021/12/19 11:31:58;;;;;;;;;;;;;;;7.14;100.00;102288.09;5068095;28;19935;-76
2021/12/19 11:34:42;;;;;;;;;;;;;;;7.10;100.00;102280.50;5053509;28;19916;-77
2021/12/19 11:37:11;;;;;;;;;;;;;;;7.09;100.00;102274.44;5055826;28;19962;-76
2021/12/19 11:39:37;;;;;;;;;;;;;;;7.14;100.00;102271.56;5069798;28;20348;-78
2021/12/19 11:42:05;;;;;;;;;;;;;;;7.22;100.00;102277.22;5075997;28;19916;-77
2021/12/19 11:44:45;;;;;;;;;;;;;;;7.23;100.00;102252.78;5061947;28;19922;-76
2021/12/19 11:47:15;;;;;;;;;;;;;;;7.19;100.00;102275.59;5048365;28;19919;-77
2021/12/19 11:49:40;;;;;;;;;;;;;;;7.18;100.00;102270.47;5064776;28;19962;-77
2021/12/19 11:52:21;;;;;;;;;;;;;;;7.22;100.00;102251.09;5093542;28;19915;-75
2021/12/19 11:55:07;;;;;;;;;;;;;;;7.22;100.00;102257.16;5088763;28;20369;-76
2021/12/19 11:57:32;;;;;;;;;;;;;;;7.28;100.00;102242.09;5042535;28;20026;-77
2021/12/19 12:00:18;;;;;;;;;;;;;;;7.31;100.00;102231.44;5074300;28;20366;-76
2021/12/19 12:02:43;;;;;;;;;;;;;;;7.32;100.00;102241.81;5054874;28;19923;-76
2021/12/19 12:05:14;;;;;;;;;;;;;;;7.33;100.00;102247.91;5074843;28;19920;-77
2021/12/19 12:07:59;;;;;;;;;;;;;;;7.45;100.00;102231.50;5056831;28;19939;-77
2021/12/19 12:10:24;;;;;;;;;;;;;;;7.40;100.00;102223.09;5074104;28;20034;-76
2021/12/19 12:12:50;;;;;;;;;;;;;;;7.33;100.00;102211.34;5055228;28;19947;-76
2021/12/19 12:15:16;;;;;;;;;;;;;;;7.29;100.00;102218.50;5074480;28;19926;-77
2021/12/19 12:17:47;;;;;;;;;;;;;;;7.29;100.00;102223.72;5055152;28;19916;-77
2021/12/19 12:20:18;;;;;;;;;;;;;;;7.27;100.00;102215.16;5074330;28;19916;-77
2021/12/19 12:22:51;;;;;;;;;;;;;;;7.31;100.00;102201.00;5058772;28;19919;-77
2021/12/19 12:25:18;;;;;;;;;;;;;;;7.28;100.00;102206.38;5072289;28;19916;-78
2021/12/19 12:27:50;;;;;;;;;;;;;;;7.35;100.00;102184.22;5057331;28;19931;-78
2021/12/19 12:30:17;;;;;;;;;;;;;;;7.24;100.00;102193.59;5059811;28;19920;-77
2021/12/19 12:32:43;;;;;;;;;;;;;;;7.24;100.00;102196.22;5058013;28;19961;-76
2021/12/19 12:35:11;;;;;;;;;;;;;;;7.25;100.00;102182.22;5074121;28;19924;-78
2021/12/19 12:37:36;;;;;;;;;;;;;;;7.22;100.00;102180.66;5054920;28;19912;-77
2021/12/19 12:40:34;;;;;;;;;;;;;;;7.30;100.00;102178.41;5073669;28;19964;-78
2021/12/19 12:43:01;;;;;;;;;;;;;;;7.28;100.00;102156.78;5038473;28;20391;-76
2021/12/19 12:45:28;;;;;;;;;;;;;;;7.30;100.00;102159.31;5040496;28;19915;-76
2021/12/19 12:47:53;;;;;;;;;;;;;;;7.28;100.00;102162.00;5073765;28;20242;-75
2021/12/19 12:50:19;;;;;;;;;;;;;;;7.29;100.00;102163.69;5054662;28;20377;-77
2021/12/19 12:52:45;;;;;;;;;;;;;;;7.24;100.00;102163.13;5069724;28;19916;-77
2021/12/19 12:55:13;;;;;;;;;;;;;;;7.25;100.00;102166.56;5071305;28;20636;-77
2021/12/19 12:57:40;;;;;;;;;;;;;;;7.26;100.00;102160.44;5088942;28;19927;-77
2021/12/19 13:00:07;;;;;;;;;;;;;;;7.19;100.00;102162.53;5072577;28;19916;-76
2021/12/19 13:02:42;;;;;;;;;;;;;;;7.25;100.00;102161.34;5055381;28;19923;-76
2021/12/19 13:05:12;;;;;;;;;;;;;;;7.18;100.00;102164.31;5085923;28;19912;-77
2021/12/19 13:07:38;;;;;;;;;;;;;;;7.15;100.00;102161.03;5063913;28;20007;-78
2021/12/19 13:10:04;;;;;;;;;;;;;;;7.15;100.00;102168.88;5067113;28;19916;-78
2021/12/19 13:12:31;;;;;;;;;;;;;;;7.21;100.00;102171.13;5073147;28;19916;-76
2021/12/19 13:14:57;;;;;;;;;;;;;;;7.18;100.00;102166.09;5056382;28;19916;-76
2021/12/19 13:17:23;;;;;;;;;;;;;;;7.16;100.00;102163.56;5089055;28;19926;-76
2021/12/19 13:19:49;;;;;;;;;;;;;;;7.17;100.00;102180.91;5056483;28;20014;-76
2021/12/19 13:22:22;;;;;;;;;;;;;;;7.18;100.00;102173.94;5057746;28;19962;-78
2021/12/19 13:24:48;;;;;;;;;;;;;;;7.09;100.00;102164.84;5072457;28;20386;-77
2021/12/19 13:27:16;;;;;;;;;;;;;;;7.17;100.00;102172.22;5073122;28;20033;-77
2021/12/19 13:29:42;;;;;;;;;;;;;;;7.07;100.00;102169.31;5057020;28;20453;-76
2021/12/19 13:32:26;;;;;;;;;;;;;;;7.10;100.00;102163.94;5075270;28;19920;-76
2021/12/19 13:34:52;;;;;;;;;;;;;;;7.10;100.00;102163.06;5076397;28;20007;-77
2021/12/19 13:37:17;;;;;;;;;;;;;;;7.04;100.00;102168.66;5057981;28;20022;-78